Time;durP1;ratioP1;P1;durP2;ratioP2;P2;SDS_P1;SDS_P2;PMS_P1;PMS_P2;Temp;Humidity;BMP_temperature;BMP_pressure;BME280_temperature;BME280_humidity;BME280_pressure;Samples;Min_cycle;Max_cycle;Signal;HPM_P1;HPM_P2
2022/12/03 00:00:24;;;;;;;13.70;7.07;;;2.30;99.90;;;;;;5044800;28;20206;-68
2022/12/03 00:02:52;;;;;;;12.73;8.25;;;2.20;99.90;;;;;;5049035;28;20892;-68
2022/12/03 00:05:19;;;;;;;12.98;8.07;;;2.20;99.90;;;;;;5052716;28;20209;-68
2022/12/03 00:07:47;;;;;;;12.70;8.50;;;2.10;99.90;;;;;;5051573;28;20221;-68
2022/12/03 00:10:15;;;;;;;14.30;7.88;;;2.10;99.90;;;;;;5052600;28;20197;-67
2022/12/03 00:12:42;;;;;;;11.40;7.45;;;2.00;99.90;;;;;;5053107;28;20697;-67
2022/12/03 00:15:10;;;;;;;12.52;8.05;;;2.00;99.90;;;;;;5052992;28;20704;-67
2022/12/03 00:17:37;;;;;;;14.52;8.63;;;1.90;99.90;;;;;;5053881;28;20236;-67
2022/12/03 00:20:05;;;;;;;12.07;8.40;;;1.90;99.90;;;;;;5053686;28;20202;-68
2022/12/03 00:22:32;;;;;;;12.85;7.88;;;2.00;99.90;;;;;;5052704;28;20221;-67
2022/12/03 00:27:28;;;;;;;16.70;8.73;;;1.90;99.90;;;;;;5050656;28;20221;-66
2022/12/03 00:29:55;;;;;;;12.88;8.65;;;2.00;99.90;;;;;;5053682;28;20205;-66
2022/12/03 00:32:21;;;;;;;11.38;6.80;;;2.00;99.90;;;;;;5053555;28;20208;-66
2022/12/03 00:34:48;;;;;;;14.13;7.30;;;2.00;99.90;;;;;;5053970;28;20202;-66
2022/12/03 00:37:15;;;;;;;15.32;8.88;;;2.00;99.90;;;;;;5053920;28;20221;-65
2022/12/03 00:39:41;;;;;;;14.30;8.50;;;2.00;99.90;;;;;;5053418;28;20587;-64
2022/12/03 00:42:08;;;;;;;15.13;7.70;;;2.00;99.90;;;;;;5053291;28;20226;-65
2022/12/03 00:44:36;;;;;;;17.75;9.55;;;2.10;99.90;;;;;;5053267;28;20212;-66
2022/12/03 00:47:03;;;;;;;11.80;7.82;;;2.10;99.90;;;;;;5053555;28;20271;-66
2022/12/03 00:49:30;;;;;;;13.27;8.50;;;2.10;99.90;;;;;;5052911;28;20557;-65
2022/12/03 00:51:57;;;;;;;14.55;8.20;;;2.20;99.90;;;;;;5052682;28;20946;-65
2022/12/03 00:54:23;;;;;;;13.38;8.88;;;2.10;99.90;;;;;;5052967;28;20206;-66
2022/12/03 00:56:50;;;;;;;11.68;7.53;;;2.10;99.90;;;;;;5052996;28;20230;-66
2022/12/03 00:59:17;;;;;;;12.55;7.65;;;2.10;99.90;;;;;;5053125;28;20695;-66
2022/12/03 01:01:45;;;;;;;13.18;8.95;;;2.20;99.90;;;;;;5052351;28;20224;-66
2022/12/03 01:04:12;;;;;;;12.98;8.00;;;2.20;99.90;;;;;;5053244;28;20259;-66
2022/12/03 01:06:39;;;;;;;13.25;7.35;;;2.10;99.90;;;;;;5052543;28;20225;-65
2022/12/03 01:09:05;;;;;;;11.40;7.72;;;2.10;99.90;;;;;;5053197;28;20205;-65
2022/12/03 01:11:38;;;;;;;13.10;8.45;;;2.10;99.90;;;;;;5051963;28;20228;-65
2022/12/03 01:14:05;;;;;;;12.75;8.13;;;2.20;99.90;;;;;;5052278;28;20224;-65
2022/12/03 01:16:32;;;;;;;12.32;8.20;;;2.10;99.90;;;;;;5052494;28;20814;-65
2022/12/03 01:19:01;;;;;;;13.15;7.57;;;2.20;99.90;;;;;;5052741;28;20201;-65
2022/12/03 01:21:28;;;;;;;12.90;8.40;;;2.20;99.90;;;;;;5051763;28;20700;-65
2022/12/03 01:23:54;;;;;;;11.73;7.53;;;2.20;99.90;;;;;;5052677;28;20206;-64
2022/12/03 01:26:21;;;;;;;11.70;7.65;;;2.20;99.90;;;;;;5052527;28;20229;-65
2022/12/03 01:28:48;;;;;;;14.10;8.13;;;2.20;99.90;;;;;;5052383;28;20202;-65
2022/12/03 01:34:06;;;;;;;12.10;7.95;;;2.20;99.90;;;;;;4995533;28;20202;-65
2022/12/03 01:36:34;;;;;;;13.57;8.35;;;2.20;99.90;;;;;;5052295;28;20228;-65
2022/12/03 01:39:00;;;;;;;9.40;7.65;;;2.20;99.90;;;;;;5052110;28;20292;-65
2022/12/03 01:41:28;;;;;;;12.68;7.10;;;2.10;99.90;;;;;;5051796;28;20228;-65
2022/12/03 01:43:56;;;;;;;13.38;8.40;;;2.20;99.90;;;;;;5052148;28;20202;-66
2022/12/03 01:46:27;;;;;;;12.45;8.00;;;2.10;99.90;;;;;;5052126;28;20218;-65
2022/12/03 01:48:56;;;;;;;19.77;9.00;;;2.20;99.90;;;;;;5052022;28;20264;-65
2022/12/03 01:51:24;;;;;;;12.50;7.47;;;2.20;99.90;;;;;;5051641;28;20208;-65
2022/12/03 01:53:51;;;;;;;11.90;6.85;;;2.20;99.90;;;;;;5052947;28;20597;-66
2022/12/03 01:56:18;;;;;;;14.02;7.82;;;2.20;99.90;;;;;;5051919;28;20573;-65
2022/12/03 01:58:47;;;;;;;14.48;8.45;;;2.20;99.90;;;;;;5052000;28;20251;-65
2022/12/03 02:01:16;;;;;;;13.88;8.10;;;2.20;99.90;;;;;;5051254;28;20293;-65
2022/12/03 02:03:43;;;;;;;12.45;8.30;;;2.20;99.90;;;;;;5051920;28;20585;-65
2022/12/03 02:06:15;;;;;;;13.40;7.70;;;2.20;99.90;;;;;;5051476;28;20719;-65
2022/12/03 02:08:44;;;;;;;16.45;9.23;;;2.20;99.90;;;;;;5051783;28;20209;-65
2022/12/03 02:11:20;;;;;;;15.93;7.85;;;2.30;99.90;;;;;;5051165;28;20213;-65
2022/12/03 02:13:51;;;;;;;11.23;7.57;;;2.30;99.90;;;;;;5051225;28;20255;-66
2022/12/03 02:16:18;;;;;;;12.20;7.63;;;2.30;99.90;;;;;;5051486;28;20222;-66
2022/12/03 02:18:44;;;;;;;14.05;7.13;;;2.30;99.90;;;;;;5051051;28;20208;-65
2022/12/03 02:21:18;;;;;;;13.48;7.88;;;2.30;99.90;;;;;;5051056;28;20588;-65
2022/12/03 02:23:55;;;;;;;16.65;7.85;;;2.30;99.90;;;;;;5050991;28;20252;-66
2022/12/03 02:26:23;;;;;;;11.27;6.95;;;2.30;99.90;;;;;;5049999;28;20270;-66
2022/12/03 02:28:50;;;;;;;8.90;6.07;;;2.30;99.90;;;;;;5050878;28;20202;-66
2022/12/03 02:31:17;;;;;;;13.73;7.63;;;2.30;99.90;;;;;;5050785;28;20212;-66
2022/12/03 02:33:44;;;;;;;13.77;7.60;;;2.30;99.90;;;;;;5051233;28;20197;-66
2022/12/03 02:36:11;;;;;;;17.15;8.90;;;2.30;99.90;;;;;;5050042;28;20225;-66
2022/12/03 02:38:39;;;;;;;14.93;7.88;;;2.30;99.90;;;;;;5051024;28;20688;-66
2022/12/03 02:41:09;;;;;;;13.88;8.65;;;2.30;99.90;;;;;;5050114;28;20202;-66
2022/12/03 02:43:36;;;;;;;15.65;8.23;;;2.40;99.90;;;;;;5050904;28;20225;-66
2022/12/03 02:46:04;;;;;;;11.20;6.60;;;2.40;99.90;;;;;;5050561;28;20210;-66
2022/12/03 02:48:34;;;;;;;12.18;7.15;;;2.40;99.90;;;;;;5051069;28;20209;-66
2022/12/03 02:51:03;;;;;;;15.68;9.77;;;2.40;99.90;;;;;;5049899;28;20205;-65
2022/12/03 02:53:35;;;;;;;11.13;6.72;;;2.40;99.90;;;;;;5050868;28;20201;-66
2022/12/03 02:56:03;;;;;;;17.27;7.97;;;2.50;99.90;;;;;;5050667;28;20205;-66
2022/12/03 02:58:32;;;;;;;12.02;7.82;;;2.50;99.90;;;;;;5050723;28;20217;-66
2022/12/03 03:01:01;;;;;;;12.27;7.00;;;2.40;99.90;;;;;;5050312;28;20201;-66
2022/12/03 03:03:30;;;;;;;11.75;7.95;;;2.40;99.90;;;;;;5050322;28;20218;-66
2022/12/03 03:05:57;;;;;;;14.00;8.48;;;2.40;99.90;;;;;;5050826;28;20206;-65
2022/12/03 03:08:26;;;;;;;15.10;7.40;;;2.40;99.90;;;;;;5050372;28;20209;-66
2022/12/03 03:10:53;;;;;;;15.10;8.13;;;2.40;99.90;;;;;;5050038;28;20213;-66
2022/12/03 03:13:21;;;;;;;12.25;8.50;;;2.50;99.90;;;;;;5050418;28;20205;-66
2022/12/03 03:15:48;;;;;;;14.50;7.80;;;2.50;99.90;;;;;;5050549;28;20202;-66
2022/12/03 03:18:17;;;;;;;11.95;6.72;;;2.50;99.90;;;;;;5050402;28;20201;-66
2022/12/03 03:20:44;;;;;;;13.35;6.82;;;2.50;99.90;;;;;;5049793;28;20531;-66
2022/12/03 03:23:17;;;;;;;11.80;7.95;;;2.50;99.90;;;;;;5050295;28;20232;-66
2022/12/03 03:25:46;;;;;;;16.30;7.85;;;2.60;99.90;;;;;;5049938;28;20256;-66
2022/12/03 03:28:14;;;;;;;14.52;8.50;;;2.60;99.90;;;;;;5050283;28;20719;-66
2022/12/03 03:30:43;;;;;;;14.93;7.80;;;2.50;99.90;;;;;;5049743;28;20206;-64
2022/12/03 03:33:12;;;;;;;12.68;7.35;;;2.50;99.90;;;;;;5050208;28;20217;-65
2022/12/03 03:35:40;;;;;;;12.68;7.18;;;2.60;99.90;;;;;;5050438;28;20206;-65
2022/12/03 03:38:08;;;;;;;19.42;7.40;;;2.50;99.90;;;;;;5052964;28;20221;-65
2022/12/03 03:40:35;;;;;;;13.02;7.13;;;2.50;99.90;;;;;;5053899;28;20212;-66
2022/12/03 03:43:02;;;;;;;13.00;8.18;;;2.50;99.90;;;;;;5054083;28;20254;-66
2022/12/03 03:45:29;;;;;;;14.10;7.63;;;2.50;99.90;;;;;;5054514;28;20198;-65
2022/12/03 03:47:57;;;;;;;16.67;8.23;;;2.40;99.90;;;;;;5148016;22;20210;-91
2022/12/03 03:50:25;;;;;;;13.05;7.80;;;2.40;99.90;;;;;;5064846;28;20197;-94
2022/12/03 03:52:54;;;;;;;11.00;7.70;;;2.40;99.90;;;;;;5081053;28;20192;-91
2022/12/03 03:55:21;;;;;;;13.38;8.75;;;2.40;99.90;;;;;;5080782;28;20205;-91
2022/12/03 03:57:48;;;;;;;11.82;7.45;;;2.40;99.90;;;;;;5080995;28;20222;-92
2022/12/03 04:00:16;;;;;;;13.88;8.73;;;2.40;99.90;;;;;;5080524;28;20200;-92
2022/12/03 04:02:43;;;;;;;13.27;6.57;;;2.40;99.90;;;;;;5080699;28;20205;-91
2022/12/03 04:05:15;;;;;;;15.98;7.38;;;2.40;99.90;;;;;;5080620;28;20287;-92
2022/12/03 04:07:42;;;;;;;16.58;8.80;;;2.40;99.90;;;;;;5080893;28;20192;-92
2022/12/03 04:12:57;;;;;;;15.07;8.77;;;2.40;99.90;;;;;;5080176;28;20189;-92
2022/12/03 04:15:25;;;;;;;12.93;7.63;;;2.40;99.90;;;;;;5080594;28;20190;-94
2022/12/03 04:20:33;;;;;;;15.32;8.55;;;2.50;99.90;;;;;;5079493;28;20214;-94
2022/12/03 04:22:59;;;;;;;11.43;8.35;;;2.50;99.90;;;;;;5080604;28;20206;-92
2022/12/03 04:30:53;;;;;;;14.00;7.80;;;2.40;99.90;;;;;;5080586;28;20435;-92
2022/12/03 04:36:05;;;;;;;14.00;7.32;;;2.40;99.90;;;;;;5080502;28;20181;-92
2022/12/03 04:38:32;;;;;;;13.93;7.88;;;2.40;99.90;;;;;;5080257;28;20213;-94
2022/12/03 04:41:03;;;;;;;15.70;8.57;;;2.40;99.90;;;;;;5079973;28;20209;-93
2022/12/03 04:43:32;;;;;;;15.20;9.30;;;2.40;99.90;;;;;;5079941;28;20221;-93
2022/12/03 04:45:59;;;;;;;12.40;6.90;;;2.40;99.90;;;;;;5080009;28;20204;-93
2022/12/03 04:51:04;;;;;;;19.13;8.93;;;2.40;99.90;;;;;;5070477;28;20279;-66
2022/12/03 04:53:31;;;;;;;16.67;8.40;;;2.40;99.90;;;;;;5073235;28;20197;-66
2022/12/03 04:55:57;;;;;;;18.98;8.23;;;2.40;99.90;;;;;;5072598;28;20201;-66
2022/12/03 04:58:25;;;;;;;15.95;8.70;;;2.50;99.90;;;;;;5073064;28;20205;-66
2022/12/03 05:00:52;;;;;;;9.57;7.28;;;2.50;99.90;;;;;;5072245;28;20201;-66
2022/12/03 05:03:19;;;;;;;15.15;8.38;;;2.50;99.90;;;;;;5072724;28;20247;-66
2022/12/03 05:05:46;;;;;;;13.23;8.25;;;2.50;99.90;;;;;;5072750;28;20205;-65
2022/12/03 05:08:13;;;;;;;11.80;7.20;;;2.50;99.90;;;;;;5072784;28;20217;-66
2022/12/03 05:10:39;;;;;;;15.45;8.73;;;2.60;99.90;;;;;;5072197;28;20212;-65
2022/12/03 05:13:06;;;;;;;13.48;7.85;;;2.60;99.90;;;;;;5072190;28;20208;-66
2022/12/03 05:15:34;;;;;;;12.20;7.43;;;2.50;99.90;;;;;;5072939;28;20578;-66
2022/12/03 05:18:01;;;;;;;18.17;8.45;;;2.50;99.90;;;;;;5072351;28;20682;-66
2022/12/03 05:20:43;;;;;;;14.35;8.23;;;2.50;99.90;;;;;;5072066;28;20197;-65
2022/12/03 05:23:11;;;;;;;12.05;8.57;;;2.50;99.90;;;;;;5071953;28;20217;-66
2022/12/03 05:25:38;;;;;;;16.30;7.85;;;2.50;99.90;;;;;;5072643;28;20205;-66
2022/12/03 05:28:06;;;;;;;16.17;8.95;;;2.50;99.90;;;;;;5071855;28;20312;-66
2022/12/03 05:30:34;;;;;;;15.77;8.98;;;2.50;99.90;;;;;;5071911;28;20205;-66
2022/12/03 05:33:01;;;;;;;11.10;7.85;;;2.50;99.90;;;;;;5072415;28;20688;-66
2022/12/03 05:35:28;;;;;;;13.85;7.40;;;2.50;99.90;;;;;;5072491;28;20564;-66
2022/12/03 05:37:54;;;;;;;16.60;8.20;;;2.50;99.90;;;;;;5072361;28;20232;-66
2022/12/03 05:40:22;;;;;;;12.25;6.38;;;2.60;99.90;;;;;;5071320;28;20204;-66
2022/12/03 05:42:53;;;;;;;10.45;6.90;;;2.60;99.90;;;;;;5072252;28;20599;-66
2022/12/03 05:45:21;;;;;;;11.90;6.57;;;2.60;99.90;;;;;;5071810;28;20262;-66
2022/12/03 05:47:49;;;;;;;14.43;8.25;;;2.60;99.90;;;;;;5072337;28;20239;-66
2022/12/03 05:50:16;;;;;;;12.15;6.85;;;2.60;99.90;;;;;;5071259;28;20209;-66
2022/12/03 05:52:43;;;;;;;11.70;6.85;;;2.60;99.90;;;;;;5071901;28;20220;-65
2022/12/03 05:55:10;;;;;;;12.55;7.22;;;2.60;99.90;;;;;;5071870;28;20201;-66
2022/12/03 05:57:37;;;;;;;10.65;6.40;;;2.60;99.90;;;;;;5071583;28;20221;-65
2022/12/03 06:00:07;;;;;;;16.23;9.50;;;2.50;99.90;;;;;;5071424;28;20208;-65
2022/12/03 06:02:34;;;;;;;11.73;7.38;;;2.60;99.90;;;;;;5071033;28;20703;-66
2022/12/03 06:05:02;;;;;;;12.18;7.05;;;2.60;99.90;;;;;;5071842;28;20626;-65
2022/12/03 06:07:29;;;;;;;15.20;8.85;;;2.60;99.90;;;;;;5071367;28;20609;-66
2022/12/03 06:09:55;;;;;;;17.58;8.07;;;2.60;99.90;;;;;;5071607;28;20208;-65
2022/12/03 06:12:22;;;;;;;13.32;8.13;;;2.60;99.90;;;;;;5071249;28;20201;-65
2022/12/03 06:14:49;;;;;;;15.70;9.27;;;2.60;99.90;;;;;;5071419;28;20212;-65
2022/12/03 06:17:16;;;;;;;16.45;8.35;;;2.60;99.90;;;;;;5071485;28;20221;-65
2022/12/03 06:19:42;;;;;;;14.68;7.30;;;2.60;99.90;;;;;;5071293;28;20197;-65
2022/12/03 06:22:10;;;;;;;11.65;6.22;;;2.50;99.90;;;;;;5070926;28;20209;-65
2022/12/03 06:24:37;;;;;;;11.05;7.28;;;2.60;99.90;;;;;;5143175;22;20232;-67
2022/12/03 06:27:04;;;;;;;11.13;6.85;;;2.60;99.90;;;;;;5080721;28;20236;-67
2022/12/03 06:29:31;;;;;;;12.40;7.90;;;2.60;99.90;;;;;;5070822;28;20212;-67
2022/12/03 06:31:58;;;;;;;11.65;7.93;;;2.50;99.90;;;;;;5071035;28;20209;-67
2022/12/03 06:34:25;;;;;;;14.55;8.32;;;2.50;99.90;;;;;;5071320;28;20864;-68
2022/12/03 06:36:51;;;;;;;16.02;8.43;;;2.50;99.90;;;;;;5071031;28;20744;-68
2022/12/03 06:39:19;;;;;;;8.80;6.43;;;2.50;99.90;;;;;;5070903;28;20216;-68
2022/12/03 06:41:46;;;;;;;13.25;7.65;;;2.50;99.90;;;;;;5070577;28;20205;-67
2022/12/03 06:44:13;;;;;;;16.40;8.93;;;2.50;99.90;;;;;;5071109;28;20719;-68
2022/12/03 06:46:39;;;;;;;14.38;8.25;;;2.50;99.90;;;;;;5071013;28;20225;-68
2022/12/03 06:49:08;;;;;;;12.50;7.25;;;2.60;99.90;;;;;;5070911;28;20208;-67
2022/12/03 06:51:34;;;;;;;12.70;7.90;;;2.60;99.90;;;;;;5070589;28;20201;-68
2022/12/03 06:54:02;;;;;;;14.70;7.63;;;2.60;99.90;;;;;;5070902;28;20542;-67
2022/12/03 06:56:30;;;;;;;13.52;7.60;;;2.60;99.90;;;;;;5070633;28;20220;-67
2022/12/03 06:58:57;;;;;;;13.32;7.78;;;2.60;99.90;;;;;;5070474;28;20300;-67
2022/12/03 07:01:24;;;;;;;14.25;7.95;;;2.60;99.90;;;;;;5070121;28;20205;-67
2022/12/03 07:03:51;;;;;;;13.00;8.20;;;2.60;99.90;;;;;;5070304;28;20224;-68
2022/12/03 07:06:18;;;;;;;16.17;7.53;;;2.60;99.90;;;;;;5070395;28;20224;-68
2022/12/03 07:08:44;;;;;;;16.48;8.23;;;2.60;99.90;;;;;;5070639;28;20201;-67
2022/12/03 07:13:53;;;;;;;14.27;7.90;;;2.60;99.90;;;;;;5069940;28;20193;-67
2022/12/03 07:16:20;;;;;;;12.15;7.15;;;2.60;99.90;;;;;;5070477;28;20235;-68
2022/12/03 07:18:46;;;;;;;13.38;6.70;;;2.70;99.90;;;;;;5070910;28;20201;-67
2022/12/03 07:21:13;;;;;;;13.45;7.35;;;2.70;99.90;;;;;;5069598;28;20197;-67
2022/12/03 07:23:40;;;;;;;15.27;8.50;;;2.70;99.90;;;;;;5068305;28;20220;-68
2022/12/03 07:26:07;;;;;;;17.85;8.60;;;2.70;99.90;;;;;;5069001;28;20213;-67
2022/12/03 07:28:33;;;;;;;16.38;9.40;;;2.70;99.90;;;;;;5070469;28;20224;-67
2022/12/03 07:31:01;;;;;;;13.15;7.65;;;2.70;99.90;;;;;;5068006;28;20208;-67
2022/12/03 07:33:28;;;;;;;13.18;7.25;;;2.70;99.90;;;;;;5070145;28;20580;-67
2022/12/03 07:35:55;;;;;;;13.68;9.20;;;2.70;99.90;;;;;;5070116;28;20201;-67
2022/12/03 07:38:22;;;;;;;14.20;9.27;;;2.70;99.90;;;;;;5070440;28;20205;-67
2022/12/03 07:40:48;;;;;;;15.00;8.48;;;2.80;99.90;;;;;;5069599;28;20216;-67
2022/12/03 07:43:15;;;;;;;11.15;7.38;;;2.80;99.90;;;;;;5070140;28;20224;-67
2022/12/03 07:45:42;;;;;;;18.30;9.25;;;2.80;99.90;;;;;;5070362;28;20314;-67
2022/12/03 07:48:10;;;;;;;10.35;7.35;;;2.80;99.90;;;;;;5069975;28;20262;-67
2022/12/03 07:50:36;;;;;;;12.35;7.88;;;2.90;99.90;;;;;;5069607;28;20201;-67
2022/12/03 07:53:03;;;;;;;14.77;9.00;;;2.80;99.90;;;;;;5070146;28;20197;-67
2022/12/03 07:55:30;;;;;;;15.77;8.93;;;2.90;99.90;;;;;;5070368;28;20197;-67
2022/12/03 07:57:57;;;;;;;15.82;8.45;;;2.90;99.90;;;;;;5069854;28;20311;-67
2022/12/03 08:00:23;;;;;;;16.63;8.32;;;2.90;99.90;;;;;;5069700;28;20205;-68
2022/12/03 08:02:50;;;;;;;13.63;9.07;;;2.90;99.90;;;;;;5069985;28;20212;-67
2022/12/03 08:05:18;;;;;;;16.15;8.98;;;2.90;99.90;;;;;;5069874;28;20680;-67
2022/12/03 08:07:45;;;;;;;17.85;9.35;;;2.80;99.90;;;;;;5069825;28;20566;-67
2022/12/03 08:10:12;;;;;;;16.73;9.40;;;2.80;99.90;;;;;;5069904;28;20205;-67
2022/12/03 08:12:42;;;;;;;13.70;8.25;;;2.80;99.90;;;;;;5069656;28;20307;-67
2022/12/03 08:15:12;;;;;;;19.25;8.52;;;2.80;99.90;;;;;;5070106;28;20623;-67
2022/12/03 08:17:41;;;;;;;13.23;8.60;;;2.80;99.90;;;;;;5069834;28;20221;-67
2022/12/03 08:20:13;;;;;;;17.83;8.90;;;2.80;99.90;;;;;;5069666;28;20259;-67
2022/12/03 08:22:42;;;;;;;12.73;8.15;;;2.80;99.90;;;;;;5070279;28;20209;-67
2022/12/03 08:25:17;;;;;;;16.83;8.10;;;2.80;99.90;;;;;;5072240;28;20220;-67
2022/12/03 08:27:43;;;;;;;16.20;7.88;;;2.80;99.90;;;;;;5069863;28;20228;-67
2022/12/03 08:30:13;;;;;;;15.18;8.38;;;2.80;99.90;;;;;;5072335;28;20251;-67
2022/12/03 08:32:40;;;;;;;14.68;7.72;;;2.70;99.90;;;;;;5072047;28;20204;-67
2022/12/03 08:35:12;;;;;;;11.52;7.85;;;2.70;99.90;;;;;;5072327;28;20193;-66
2022/12/03 08:37:39;;;;;;;17.63;8.35;;;2.70;99.90;;;;;;5071861;28;20270;-67
2022/12/03 08:40:20;;;;;;;13.27;7.53;;;2.70;99.90;;;;;;5072098;28;20278;-66
2022/12/03 08:42:47;;;;;;;15.65;8.10;;;2.60;99.90;;;;;;5068864;28;20221;-66
2022/12/03 08:45:39;;;;;;;15.43;8.25;;;2.60;99.90;;;;;;5072064;28;20216;-65
2022/12/03 08:48:32;;;;;;;17.95;9.45;;;2.70;99.90;;;;;;5071395;28;20221;-67
2022/12/03 08:51:01;;;;;;;14.70;8.35;;;2.70;99.90;;;;;;5070026;28;20201;-66
2022/12/03 08:53:31;;;;;;;14.48;7.57;;;2.70;99.90;;;;;;5071774;28;20193;-67
2022/12/03 08:56:01;;;;;;;18.45;9.10;;;2.60;99.90;;;;;;5071650;28;20197;-66
2022/12/03 08:58:39;;;;;;;13.57;8.32;;;2.60;99.90;;;;;;5068916;28;20675;-66
2022/12/03 09:01:24;;;;;;;19.35;9.45;;;2.70;99.90;;;;;;5071323;28;20197;-66
2022/12/03 09:03:53;;;;;;;19.77;10.10;;;2.70;99.90;;;;;;5068789;28;20232;-66
2022/12/03 09:06:20;;;;;;;15.68;8.68;;;2.60;99.90;;;;;;5072631;28;20252;-66
2022/12/03 09:08:47;;;;;;;14.63;8.82;;;2.60;99.90;;;;;;5072608;28;20473;-66
2022/12/03 09:11:25;;;;;;;14.77;8.30;;;2.50;99.90;;;;;;5072223;28;20212;-66
2022/12/03 09:13:52;;;;;;;21.10;9.43;;;2.50;99.90;;;;;;5071165;28;20201;-66
2022/12/03 09:16:19;;;;;;;16.25;8.02;;;2.50;99.90;;;;;;5072572;28;20623;-67
2022/12/03 09:18:46;;;;;;;12.65;7.70;;;2.50;99.90;;;;;;5072595;28;20201;-66
2022/12/03 09:21:12;;;;;;;14.73;8.48;;;2.40;99.90;;;;;;5071863;28;20200;-67
2022/12/03 09:23:39;;;;;;;18.35;9.27;;;2.40;99.90;;;;;;5072485;28;20236;-67
2022/12/03 09:26:06;;;;;;;20.15;9.57;;;2.40;99.90;;;;;;5072224;28;20216;-67
2022/12/03 09:28:34;;;;;;;26.83;10.57;;;2.40;99.90;;;;;;5072573;28;20197;-67
2022/12/03 09:31:01;;;;;;;15.65;8.35;;;2.40;99.90;;;;;;5071694;28;20205;-67
2022/12/03 09:33:28;;;;;;;15.93;8.30;;;2.30;99.90;;;;;;5072556;28;20204;-66
2022/12/03 09:35:54;;;;;;;23.20;10.70;;;2.30;99.90;;;;;;5071638;28;20209;-67
2022/12/03 09:38:21;;;;;;;17.33;9.13;;;2.30;99.90;;;;;;5071714;28;20203;-67
2022/12/03 09:40:48;;;;;;;22.40;10.30;;;2.30;99.90;;;;;;5071469;28;20212;-67
2022/12/03 09:43:15;;;;;;;17.58;8.77;;;2.30;99.90;;;;;;5071195;28;20205;-67
2022/12/03 09:45:46;;;;;;;19.55;9.63;;;2.30;99.90;;;;;;5072180;28;20205;-67
2022/12/03 09:48:15;;;;;;;16.08;8.18;;;2.50;99.90;;;;;;5071830;28;20235;-67
2022/12/03 09:50:42;;;;;;;19.77;9.45;;;2.50;99.90;;;;;;5071512;28;20209;-67
2022/12/03 09:53:13;;;;;;;21.52;9.90;;;2.60;99.90;;;;;;5072142;28;20212;-67
2022/12/03 09:55:40;;;;;;;17.98;9.23;;;2.70;99.90;;;;;;5072255;28;20201;-67
2022/12/03 09:58:11;;;;;;;18.80;10.32;;;2.70;99.90;;;;;;5071503;28;20236;-67
2022/12/03 10:00:38;;;;;;;21.95;10.13;;;2.70;99.90;;;;;;5071409;28;20205;-67
2022/12/03 10:03:07;;;;;;;15.60;8.65;;;2.70;99.90;;;;;;5071869;28;20212;-67
2022/12/03 10:05:34;;;;;;;16.20;9.25;;;2.60;99.90;;;;;;5071604;28;20221;-67
2022/12/03 10:08:06;;;;;;;14.07;8.77;;;2.50;99.90;;;;;;5071530;28;20243;-67
2022/12/03 10:10:34;;;;;;;16.98;9.32;;;2.50;99.90;;;;;;5070946;28;20208;-67
2022/12/03 10:13:01;;;;;;;20.85;9.98;;;2.50;99.90;;;;;;5071573;28;20530;-67
2022/12/03 10:15:28;;;;;;;14.95;8.20;;;2.40;99.90;;;;;;5071376;28;20201;-67
2022/12/03 10:17:55;;;;;;;14.18;8.80;;;2.40;99.90;;;;;;5071417;28;20599;-67
2022/12/03 10:20:25;;;;;;;12.88;7.63;;;2.40;99.90;;;;;;5064476;28;20212;-67
2022/12/03 10:22:52;;;;;;;12.27;8.02;;;2.40;99.90;;;;;;5071494;28;20208;-67
2022/12/03 10:25:20;;;;;;;14.45;9.02;;;2.30;99.90;;;;;;5070731;28;20217;-67
2022/12/03 10:27:57;;;;;;;13.90;8.50;;;2.30;99.90;;;;;;5070822;28;20232;-67
2022/12/03 10:30:27;;;;;;;14.90;7.68;;;2.20;99.90;;;;;;5070845;28;20204;-67
2022/12/03 10:32:55;;;;;;;16.33;8.32;;;2.20;99.90;;;;;;5070632;28;20204;-67
2022/12/03 10:35:25;;;;;;;15.70;9.15;;;2.20;99.90;;;;;;5070748;28;20201;-67
2022/12/03 10:38:00;;;;;;;17.73;9.00;;;2.20;99.90;;;;;;5070625;28;20721;-67
2022/12/03 10:40:28;;;;;;;14.80;7.93;;;2.20;99.90;;;;;;5070616;28;20212;-67
2022/12/03 10:43:14;;;;;;;18.15;10.43;;;2.20;99.90;;;;;;5070233;28;20212;-67
2022/12/03 10:45:41;;;;;;;13.40;8.18;;;2.10;99.90;;;;;;5070947;28;20601;-67
2022/12/03 10:48:13;;;;;;;15.20;9.32;;;2.10;99.90;;;;;;5069477;28;20221;-67
2022/12/03 10:50:50;;;;;;;14.63;8.68;;;2.20;99.90;;;;;;5070803;28;20227;-67
2022/12/03 10:53:17;;;;;;;15.95;8.35;;;2.20;99.90;;;;;;5071232;28;20197;-67
2022/12/03 10:55:45;;;;;;;16.30;7.57;;;2.20;99.90;;;;;;5070058;28;20204;-67
2022/12/03 10:58:19;;;;;;;15.98;8.80;;;2.20;99.90;;;;;;5070637;28;20233;-67
2022/12/03 11:00:46;;;;;;;14.45;7.05;;;2.10;99.90;;;;;;5069179;28;20291;-67
2022/12/03 11:03:18;;;;;;;10.50;6.65;;;2.20;99.90;;;;;;5070488;28;20674;-67
2022/12/03 11:05:47;;;;;;;14.45;8.95;;;2.20;99.90;;;;;;5069984;28;20316;-67
2022/12/03 11:08:21;;;;;;;16.70;9.48;;;2.30;99.90;;;;;;5070237;28;20201;-67
2022/12/03 11:10:57;;;;;;;19.02;10.00;;;2.30;99.90;;;;;;5069085;28;20618;-67
2022/12/03 11:13:43;;;;;;;14.85;8.80;;;2.30;99.90;;;;;;5069820;28;20618;-67
2022/12/03 11:16:10;;;;;;;16.17;8.02;;;2.30;99.90;;;;;;5070015;28;20271;-67
2022/12/03 11:19:00;;;;;;;14.38;8.75;;;2.30;99.90;;;;;;5069886;28;20208;-67
2022/12/03 11:21:31;;;;;;;11.70;6.35;;;2.30;99.90;;;;;;5069555;28;20671;-67
2022/12/03 11:24:28;;;;;;;16.52;8.45;;;2.30;99.90;;;;;;5070335;28;20224;-67
2022/12/03 11:27:25;;;;;;;13.15;7.97;;;2.30;99.90;;;;;;5069940;28;20229;-67
2022/12/03 11:29:54;;;;;;;16.15;7.93;;;2.30;99.90;;;;;;5070492;28;20296;-67
2022/12/03 11:33:07;;;;;;;12.18;6.47;;;2.30;99.90;;;;;;5070003;28;20207;-67
2022/12/03 11:36:11;;;;;;;14.73;7.85;;;2.30;99.90;;;;;;5070094;28;20197;-67
2022/12/03 11:38:52;;;;;;;13.20;6.53;;;2.20;99.90;;;;;;5069131;28;20654;-67
2022/12/03 11:41:25;;;;;;;11.05;6.78;;;2.10;99.90;;;;;;5069587;28;20201;-67
2022/12/03 11:44:26;;;;;;;11.75;7.25;;;2.10;99.90;;;;;;5069918;28;20205;-67
2022/12/03 11:46:54;;;;;;;12.25;6.53;;;2.10;99.90;;;;;;5069897;28;20224;-67
2022/12/03 11:49:32;;;;;;;13.70;7.68;;;2.10;99.90;;;;;;5069663;28;20208;-67
2022/12/03 11:52:02;;;;;;;12.82;6.93;;;2.10;99.90;;;;;;5075765;28;20577;-67
2022/12/03 11:54:34;;;;;;;15.35;8.00;;;2.10;99.90;;;;;;5080110;28;20197;-67
2022/12/03 11:57:01;;;;;;;13.05;8.68;;;2.10;99.90;;;;;;5068580;28;20225;-67
2022/12/03 11:59:28;;;;;;;10.45;6.22;;;2.20;99.90;;;;;;5072701;28;20204;-67
2022/12/03 12:01:54;;;;;;;15.25;7.03;;;2.20;99.90;;;;;;5072769;28;20209;-67
2022/12/03 12:04:30;;;;;;;12.27;8.10;;;2.10;99.90;;;;;;5072943;28;20217;-67
2022/12/03 12:06:57;;;;;;;12.25;6.07;;;2.00;99.90;;;;;;5073582;28;20225;-67
2022/12/03 12:09:54;;;;;;;11.45;6.70;;;2.00;99.90;;;;;;5073033;28;20201;-67
2022/12/03 12:12:30;;;;;;;15.13;7.10;;;2.00;99.90;;;;;;5073057;28;20213;-67
2022/12/03 12:14:58;;;;;;;15.43;8.05;;;2.00;99.90;;;;;;5072779;28;20212;-67
2022/12/03 12:17:33;;;;;;;12.98;6.80;;;2.00;99.90;;;;;;5072813;28;20711;-67
2022/12/03 12:20:22;;;;;;;10.00;6.30;;;2.00;99.90;;;;;;5072712;28;20197;-67
2022/12/03 12:22:49;;;;;;;8.50;6.50;;;2.00;99.90;;;;;;5072939;28;20209;-67
2022/12/03 12:25:38;;;;;;;17.38;7.95;;;2.00;99.90;;;;;;5072800;28;20216;-67
2022/12/03 12:28:05;;;;;;;9.93;7.05;;;2.10;99.90;;;;;;5072484;28;20301;-67
2022/12/03 12:30:32;;;;;;;10.98;6.32;;;2.10;99.90;;;;;;5072480;28;20204;-67
2022/12/03 12:33:13;;;;;;;12.50;6.70;;;2.00;99.90;;;;;;5072166;28;20232;-67
2022/12/03 12:35:41;;;;;;;10.55;5.65;;;2.00;99.90;;;;;;5073036;28;20691;-67
2022/12/03 12:38:15;;;;;;;10.52;6.18;;;2.00;99.90;;;;;;5072709;28;20225;-67
2022/12/03 12:40:45;;;;;;;8.95;6.40;;;2.00;99.90;;;;;;5071704;28;20201;-67
2022/12/03 12:43:20;;;;;;;13.60;7.18;;;2.00;99.90;;;;;;5073157;28;20239;-67
2022/12/03 12:45:47;;;;;;;10.43;6.10;;;2.00;99.90;;;;;;5072410;28;20220;-67
2022/12/03 12:48:22;;;;;;;11.30;7.00;;;2.00;99.90;;;;;;5072470;28;20205;-67
2022/12/03 12:50:52;;;;;;;10.23;5.90;;;2.00;99.90;;;;;;5071534;28;20255;-67
2022/12/03 12:53:23;;;;;;;13.40;6.65;;;1.90;99.90;;;;;;5095931;22;20267;-94
2022/12/03 12:56:16;;;;;;;9.48;6.03;;;1.90;99.90;;;;;;5092380;28;20200;-92
2022/12/03 12:58:43;;;;;;;10.55;6.25;;;1.90;99.90;;;;;;5099947;28;20207;-92
2022/12/03 13:01:19;;;;;;;13.48;7.18;;;1.80;99.90;;;;;;5099275;28;20222;-92
2022/12/03 13:03:51;;;;;;;12.93;7.35;;;1.80;99.90;;;;;;5111513;22;20224;-64
2022/12/03 13:06:19;;;;;;;17.60;6.78;;;1.70;99.90;;;;;;5031803;28;20222;-65
2022/12/03 13:08:48;;;;;;;11.40;7.75;;;1.70;99.90;;;;;;5032434;28;20214;-66
2022/12/03 13:11:34;;;;;;;14.20;7.50;;;1.80;99.90;;;;;;5028587;28;20211;-65
2022/12/03 13:14:02;;;;;;;14.63;7.03;;;1.90;99.90;;;;;;5013265;28;20214;-65
2022/12/03 13:16:31;;;;;;;13.38;6.60;;;1.90;99.90;;;;;;5013065;28;20219;-65
2022/12/03 13:18:59;;;;;;;13.90;8.55;;;1.90;99.90;;;;;;5022710;28;20198;-65
2022/12/03 13:21:34;;;;;;;11.18;7.13;;;1.80;99.90;;;;;;5031871;28;20210;-65
2022/12/03 13:24:01;;;;;;;13.05;7.10;;;1.80;99.90;;;;;;5032877;28;20205;-64